St.peterburg Pilot — UAMI — position and weather

sailwx.info

Track history (hours):
 
Tides and Currents Weather Stations Pressure Air Temp Water Temp Dewpoint Dewpoint Depression Visibility Wind Speed Wind Dir Waves Ship Positions

St.peterburg Pilot

Last reported at 2017-Apr-22 08:13 UTC. Time now 2017-Apr-24 07:21 UTC.
Position N 60°01' E 029°28'.

Length 59 m; draft 3.8 m.

Type: Pilot. MMSI: 273436530.

Date/timePositionNaut miles runAvg speedWind from/ knotsBaromVisibWave heightAir tempDewpointWater temp
2017-Apr-22 08:13N 60°01' E 029°28'5 0.4
2017-Apr-21 21:35N 60°00' E 029°37'1 8.8
2017-Apr-21 21:30N 59°60' E 029°39'2 3.0
2017-Apr-21 20:47N 59°59' E 029°42'0 0.0
2017-Apr-21 17:48N 59°59' E 029°42'0 0.0
2017-Apr-21 17:26N 59°59' E 029°42'0 0.0
2017-Apr-21 17:00N 59°59' E 029°42'0 0.0
2017-Apr-21 16:27N 59°59' E 029°42'0 0.0
2017-Apr-21 15:53N 59°59' E 029°43'0 0.0
2017-Apr-21 15:30N 59°59' E 029°42'0 0.0
2017-Apr-21 14:41N 59°59' E 029°42'0 0.0
2017-Apr-21 09:34N 59°59' E 029°42'0 0.0
2017-Apr-21 09:25N 59°59' E 029°42'0 0.0
2017-Apr-21 08:33N 59°59' E 029°42'0 0.3
2017-Apr-21 08:30N 59°59' E 029°42'0 0.0
2017-Apr-21 07:45N 59°59' E 029°42'0 0.1
2017-Apr-21 07:30N 59°59' E 029°42'0 0.0
2017-Apr-21 06:56N 59°59' E 029°42'0 0.0
2017-Apr-21 06:29N 59°59' E 029°42'0 0.0
2017-Apr-21 05:54N 59°59' E 029°42'0 0.9
2017-Apr-21 05:30N 59°59' E 029°42'2 0.1
2017-Apr-20 08:11N 59°60' E 029°39'2 6.4
2017-Apr-20 07:57N 59°59' E 029°42'  
2017-Apr-12 18:23N 60°00' E 029°43'  
Track history (hours):
 
Tides and Currents Weather Stations Pressure Air Temp Water Temp Dewpoint Dewpoint Depression Visibility Wind Speed Wind Dir Waves Ship Positions

St.peterburg Pilot

Last reported at 2017-Apr-22 08:13 UTC. Time now 2017-Apr-24 07:21 UTC.
Position N 60°01' E 029°28'.

Length 59 m; draft 3.8 m.

Type: Pilot. MMSI: 273436530.

Date/timePositionNaut miles runAvg speedWind from/ knotsBaromVisibWave heightAir tempDewpointWater temp
2017-Apr-22 08:13N 60°01' E 029°28'5 0.4
2017-Apr-21 21:35N 60°00' E 029°37'1 8.8
2017-Apr-21 21:30N 59°60' E 029°39'2 3.0
2017-Apr-21 20:47N 59°59' E 029°42'0 0.0
2017-Apr-21 17:48N 59°59' E 029°42'0 0.0
2017-Apr-21 17:26N 59°59' E 029°42'0 0.0
2017-Apr-21 17:00N 59°59' E 029°42'0 0.0
2017-Apr-21 16:27N 59°59' E 029°42'0 0.0
2017-Apr-21 15:53N 59°59' E 029°43'0 0.0
2017-Apr-21 15:30N 59°59' E 029°42'0 0.0
2017-Apr-21 14:41N 59°59' E 029°42'0 0.0
2017-Apr-21 09:34N 59°59' E 029°42'0 0.0
2017-Apr-21 09:25N 59°59' E 029°42'0 0.0
2017-Apr-21 08:33N 59°59' E 029°42'0 0.3
2017-Apr-21 08:30N 59°59' E 029°42'0 0.0
2017-Apr-21 07:45N 59°59' E 029°42'0 0.1
2017-Apr-21 07:30N 59°59' E 029°42'0 0.0
2017-Apr-21 06:56N 59°59' E 029°42'0 0.0
2017-Apr-21 06:29N 59°59' E 029°42'0 0.0
2017-Apr-21 05:54N 59°59' E 029°42'0 0.9
2017-Apr-21 05:30N 59°59' E 029°42'2 0.1
2017-Apr-20 08:11N 59°60' E 029°39'2 6.4
2017-Apr-20 07:57N 59°59' E 029°42'  
2017-Apr-12 18:23N 60°00' E 029°43'  

Dump ship's entire track history